Time;durP1;ratioP1;P1;durP2;ratioP2;P2;SDS_P1;SDS_P2;PMS_P1;PMS_P2;Temp;Humidity;BMP_temperature;BMP_pressure;BME280_temperature;BME280_humidity;BME280_pressure;Samples;Min_cycle;Max_cycle;Signal;HPM_P1;HPM_P2
2021/12/23 00:01:33;;;;;;;5.63;4.57;;;;;;;-1.84;99.53;100970.19;5070593;28;20491;-75
2021/12/23 00:03:59;;;;;;;5.50;5.00;;;;;;;-1.77;98.86;100962.09;5070718;28;20508;-77
2021/12/23 00:06:24;;;;;;;6.93;4.63;;;;;;;-1.72;98.21;100960.44;5070496;28;20190;-77
2021/12/23 00:08:49;;;;;;;7.10;5.07;;;;;;;-1.69;97.45;100960.00;5070515;28;20170;-78
2021/12/23 00:11:15;;;;;;;5.07;4.57;;;;;;;-1.68;96.75;100948.25;5070456;28;20213;-76
2021/12/23 00:13:48;;;;;;;5.23;4.50;;;;;;;-1.61;96.63;100943.63;5070478;28;20611;-75
2021/12/23 00:16:18;;;;;;;5.43;4.77;;;;;;;-1.33;95.25;100948.53;5070541;28;20181;-76
2021/12/23 00:18:49;;;;;;;5.23;4.73;;;;;;;-1.35;93.82;100941.78;5070458;28;20463;-77
2021/12/23 00:24:01;;;;;;;4.27;3.87;;;;;;;-1.29;91.85;100943.59;5070743;28;20808;-76
2021/12/23 00:26:28;;;;;;;4.10;3.70;;;;;;;-1.30;91.18;100942.75;5070249;28;20436;-75
2021/12/23 00:28:53;;;;;;;5.23;4.40;;;;;;;-1.33;91.57;100929.78;5070335;28;20761;-75
2021/12/23 00:31:19;;;;;;;1.93;1.63;;;;;;;-1.32;92.13;100925.25;5070300;28;20797;-76
2021/12/23 00:33:44;;;;;;;3.77;3.47;;;;;;;-1.36;91.55;100924.88;5069967;28;20174;-75
2021/12/23 00:36:12;;;;;;;3.57;3.27;;;;;;;-1.28;91.66;100915.75;5070250;28;20203;-76
2021/12/23 00:38:44;;;;;;;5.70;4.90;;;;;;;-1.31;91.55;100910.78;5070456;28;20200;-76
2021/12/23 00:41:10;;;;;;;5.60;3.90;;;;;;;-1.39;91.45;100900.38;5070125;28;20473;-76
2021/12/23 00:43:36;;;;;;;7.10;5.13;;;;;;;-1.32;91.26;100890.41;5070178;28;20462;-76
2021/12/23 00:46:03;;;;;;;5.53;4.93;;;;;;;-1.35;92.11;100886.31;5069902;28;20411;-75
2021/12/23 00:48:29;;;;;;;4.57;4.10;;;;;;;-1.34;92.04;100892.50;5068754;28;20421;-75
2021/12/23 00:50:55;;;;;;;0.53;0.53;;;;;;;-1.22;91.42;100894.22;5070224;28;20916;-77
2021/12/23 00:53:23;;;;;;;8.43;3.57;;;;;;;-1.21;90.59;100890.50;5070502;28;20644;-75
2021/12/23 00:55:54;;;;;;;4.10;3.57;;;;;;;-1.15;90.19;100886.13;5073840;28;20171;-76
2021/12/23 00:58:22;;;;;;;3.60;3.33;;;;;;;-1.18;89.48;100875.81;5073888;28;20797;-76
2021/12/23 01:00:48;;;;;;;5.10;4.53;;;;;;;-1.14;90.27;100862.81;5073891;28;20420;-75
2021/12/23 01:03:14;;;;;;;4.63;4.23;;;;;;;-1.27;89.96;100851.19;5073874;28;20797;-77
2021/12/23 01:05:40;;;;;;;4.23;3.23;;;;;;;-1.34;91.34;100846.94;5073634;28;20182;-77
2021/12/23 01:08:06;;;;;;;6.07;5.47;;;;;;;-1.45;91.59;100832.41;5073879;28;20236;-76
2021/12/23 01:10:31;;;;;;;4.30;3.23;;;;;;;-1.37;92.48;100833.97;5073713;28;20417;-75
2021/12/23 01:13:01;;;;;;;7.27;6.07;;;;;;;-1.34;90.75;100825.50;5073565;28;20202;-76
2021/12/23 01:18:06;;;;;;;6.17;5.07;;;;;;;-1.45;90.33;100813.66;5073862;28;20423;-76
2021/12/23 01:20:35;;;;;;;5.77;5.27;;;;;;;-1.57;92.43;100805.56;5073587;28;20420;-75
2021/12/23 01:23:04;;;;;;;5.83;5.03;;;;;;;-1.59;92.95;100799.59;5073374;28;20482;-75
2021/12/23 01:25:31;;;;;;;5.83;3.70;;;;;;;-1.38;92.59;100814.41;5073092;28;20519;-75
2021/12/23 01:27:57;;;;;;;6.07;5.37;;;;;;;-1.33;91.69;100798.47;5073294;28;20516;-77
2021/12/23 01:30:23;;;;;;;6.13;4.57;;;;;;;-1.33;91.35;100794.97;5073475;28;20515;-75
2021/12/23 01:32:50;;;;;;;4.50;3.37;;;;;;;-1.14;90.42;100809.19;5073272;28;20209;-76
2021/12/23 01:35:17;;;;;;;3.70;2.63;;;;;;;-1.21;89.66;100803.91;5072803;28;20191;-76
2021/12/23 01:37:43;;;;;;;6.23;4.83;;;;;;;-1.20;89.41;100800.16;5073098;28;20420;-77
2021/12/23 01:40:10;;;;;;;4.43;3.53;;;;;;;-1.18;88.57;100787.34;5073078;28;20417;-76
2021/12/23 01:42:35;;;;;;;1.60;1.50;;;;;;;-1.03;87.79;100785.09;5073253;28;20224;-75
2021/12/23 01:45:02;;;;;;;5.33;4.23;;;;;;;-1.05;87.36;100781.00;5072923;28;20445;-76
2021/12/23 01:47:29;;;;;;;6.53;4.13;;;;;;;-1.22;87.36;100776.28;5072937;28;20179;-76
2021/12/23 01:49:55;;;;;;;3.03;2.77;;;;;;;-1.01;87.00;100784.91;5073061;28;20421;-76
2021/12/23 01:52:20;;;;;;;4.97;4.30;;;;;;;-1.24;87.89;100764.16;5072853;28;20491;-77
2021/12/23 01:54:46;;;;;;;2.83;2.53;;;;;;;-1.33;88.78;100777.03;5072910;28;20627;-75
2021/12/23 01:57:12;;;;;;;6.10;4.47;;;;;;;-1.26;88.63;100767.06;5072789;28;20178;-77
2021/12/23 01:59:39;;;;;;;5.37;4.87;;;;;;;-1.15;87.91;100778.06;5072719;28;20645;-79
2021/12/23 02:02:04;;;;;;;4.93;3.13;;;;;;;-1.16;88.00;100758.47;5072552;28;20443;-77
2021/12/23 02:04:30;;;;;;;3.87;1.70;;;;;;;-1.10;88.58;100770.97;5072286;28;20420;-76
2021/12/23 02:06:55;;;;;;;9.73;5.27;;;;;;;-1.14;87.72;100763.63;5072591;28;20284;-75
2021/12/23 02:09:20;;;;;;;4.97;4.10;;;;;;;-1.19;87.83;100758.91;5072688;28;20253;-76
2021/12/23 02:11:46;;;;;;;5.00;4.40;;;;;;;-1.31;88.29;100756.19;5072527;28;20245;-76
2021/12/23 02:14:11;;;;;;;6.97;4.43;;;;;;;-1.29;88.89;100755.97;5071284;28;20206;-76
2021/12/23 02:16:37;;;;;;;6.37;5.63;;;;;;;-1.24;88.76;100732.81;5072379;28;20174;-76
2021/12/23 02:19:04;;;;;;;7.37;4.47;;;;;;;-1.30;88.76;100722.19;5072428;28;20186;-75
2021/12/23 02:21:29;;;;;;;6.43;5.77;;;;;;;-1.44;90.19;100718.84;5072232;28;20692;-76
2021/12/23 02:23:54;;;;;;;7.67;6.17;;;;;;;-1.50;91.06;100723.25;5072223;28;20655;-75
2021/12/23 02:26:20;;;;;;;7.47;5.27;;;;;;;-1.50;90.93;100712.53;5072154;28;20170;-77
2021/12/23 02:28:45;;;;;;;6.17;5.57;;;;;;;-1.45;91.03;100714.50;5072361;28;20229;-76
2021/12/23 02:31:10;;;;;;;7.00;4.50;;;;;;;-1.43;90.57;100720.50;5072170;28;20175;-77
2021/12/23 02:33:36;;;;;;;5.10;4.60;;;;;;;-1.43;90.39;100725.84;5071829;28;20228;-76
2021/12/23 02:36:02;;;;;;;9.47;6.63;;;;;;;-1.44;90.23;100713.50;5071929;28;20179;-77
2021/12/23 02:38:28;;;;;;;5.47;4.47;;;;;;;-1.39;90.25;100723.53;5072010;28;20516;-76
2021/12/23 02:40:53;;;;;;;6.10;5.50;;;;;;;-1.44;90.92;100718.03;5072069;28;20421;-76
2021/12/23 02:43:24;;;;;;;5.60;4.70;;;;;;;-1.27;90.73;100722.53;5071828;28;20183;-76
2021/12/23 02:45:52;;;;;;;7.87;6.07;;;;;;;-1.27;90.77;100724.41;5071767;28;20177;-76
2021/12/23 02:48:24;;;;;;;6.30;5.30;;;;;;;-1.17;90.94;100718.47;5071726;28;20413;-76
2021/12/23 02:50:52;;;;;;;3.83;3.50;;;;;;;-1.18;89.41;100706.13;5071756;28;20409;-76
2021/12/23 02:53:18;;;;;;;9.53;5.73;;;;;;;-1.25;89.79;100696.31;5071731;28;20465;-78
2021/12/23 02:55:44;;;;;;;8.57;5.90;;;;;;;-1.23;89.19;100707.63;5071942;28;20755;-75
2021/12/23 02:58:10;;;;;;;5.83;4.57;;;;;;;-0.98;87.82;100695.97;5070137;28;20185;-77
2021/12/23 03:00:37;;;;;;;6.67;6.07;;;;;;;-1.19;88.49;100681.19;5070360;28;20437;-76
2021/12/23 03:03:03;;;;;;;7.40;4.53;;;;;;;-1.35;90.06;100663.06;5069819;28;20190;-75
2021/12/23 03:05:29;;;;;;;5.80;4.77;;;;;;;-1.39;91.42;100649.31;5071260;28;20417;-76
2021/12/23 03:07:54;;;;;;;11.87;6.47;;;;;;;-1.42;91.67;100651.66;5071173;28;20175;-77
2021/12/23 03:10:22;;;;;;;6.63;4.83;;;;;;;-1.48;91.86;100636.47;5070880;28;20691;-76
2021/12/23 03:12:48;;;;;;;5.47;4.97;;;;;;;-1.50;91.93;100634.00;5071205;28;20225;-77
2021/12/23 03:15:13;;;;;;;8.23;4.60;;;;;;;-1.29;91.87;100638.06;5071043;28;20441;-75
2021/12/23 03:17:38;;;;;;;5.50;4.70;;;;;;;-1.37;91.57;100635.69;5070658;28;20175;-76
2021/12/23 03:20:05;;;;;;;6.43;4.10;;;;;;;-1.33;91.37;100631.50;5071280;28;20170;-76
2021/12/23 03:22:30;;;;;;;4.97;4.47;;;;;;;-1.24;90.29;100638.19;5070993;28;20221;-77
2021/12/23 03:24:56;;;;;;;6.43;4.23;;;;;;;-1.28;90.02;100639.69;5070930;28;20491;-76
2021/12/23 03:27:21;;;;;;;6.00;4.97;;;;;;;-1.15;89.96;100631.47;5071085;28;20171;-76
2021/12/23 03:29:47;;;;;;;4.97;4.47;;;;;;;-1.15;89.24;100634.13;5070798;28;20257;-77
2021/12/23 03:32:12;;;;;;;5.67;4.57;;;;;;;-1.19;88.21;100630.25;5070896;28;20198;-77
2021/12/23 03:34:37;;;;;;;6.87;5.87;;;;;;;-1.13;88.32;100623.19;5070594;28;20250;-76
2021/12/23 03:37:03;;;;;;;6.00;5.33;;;;;;;-1.34;89.60;100605.75;5070845;28;20171;-76
2021/12/23 03:39:28;;;;;;;6.93;5.90;;;;;;;-1.35;89.69;100614.84;5070945;28;20250;-77
2021/12/23 03:41:54;;;;;;;6.40;5.70;;;;;;;-1.26;88.41;100616.16;5069500;28;20189;-76
2021/12/23 03:44:19;;;;;;;5.20;4.00;;;;;;;-1.07;87.46;100628.44;5070752;28;20174;-76
2021/12/23 03:46:44;;;;;;;6.07;4.27;;;;;;;-1.04;86.00;100621.78;5070827;28;20282;-77
2021/12/23 03:49:10;;;;;;;5.07;4.43;;;;;;;-0.83;86.04;100623.94;5070765;28;20206;-77
2021/12/23 03:51:36;;;;;;;1.47;1.33;;;;;;;-0.75;84.58;100612.03;5070587;28;20206;-77
2021/12/23 03:54:02;;;;;;;12.07;2.07;;;;;;;-0.73;84.03;100615.28;5069367;28;20233;-76
2021/12/23 03:56:28;;;;;;;3.87;3.47;;;;;;;-0.77;83.68;100596.16;5068384;28;20436;-75
2021/12/23 03:58:55;;;;;;;0.60;0.60;;;;;;;-0.76;83.50;100581.69;5070844;28;20194;-76
2021/12/23 04:01:23;;;;;;;1.57;1.47;;;;;;;-0.77;83.75;100576.56;5076192;28;20174;-75
2021/12/23 04:03:51;;;;;;;4.67;3.73;;;;;;;-0.77;83.66;100576.56;5080781;28;20428;-76
2021/12/23 04:06:16;;;;;;;1.30;1.30;;;;;;;-0.75;84.12;100583.34;5071583;28;20421;-77
2021/12/23 04:08:42;;;;;;;4.90;3.77;;;;;;;-0.73;83.55;100583.09;5071518;28;20424;-77
2021/12/23 04:11:07;;;;;;;3.27;2.97;;;;;;;-0.74;84.01;100573.41;5070767;28;20189;-76
2021/12/23 04:13:32;;;;;;;2.47;2.30;;;;;;;-0.76;83.89;100562.94;5070558;28;20201;-75
2021/12/23 04:15:58;;;;;;;3.63;2.80;;;;;;;-0.79;84.33;100555.34;5070556;28;20215;-75
2021/12/23 04:18:23;;;;;;;3.10;2.80;;;;;;;-0.79;84.25;100549.19;5070713;28;20170;-76
2021/12/23 04:20:55;;;;;;;3.90;2.43;;;;;;;-0.78;84.64;100548.94;5070428;28;20167;-75
2021/12/23 04:23:26;;;;;;;6.07;4.80;;;;;;;-0.77;84.00;100544.38;5070665;28;20167;-76
2021/12/23 04:25:52;;;;;;;1.43;1.33;;;;;;;-0.72;84.17;100539.16;5070586;28;20825;-78
2021/12/23 04:28:18;;;;;;;3.63;3.33;;;;;;;-0.79;84.55;100531.22;5072691;28;20495;-77
2021/12/23 04:30:44;;;;;;;2.67;1.53;;;;;;;-0.76;84.25;100536.09;5074680;28;20508;-76
2021/12/23 04:33:10;;;;;;;2.70;2.50;;;;;;;-0.73;84.12;100530.25;5074550;28;20198;-75
2021/12/23 04:35:36;;;;;;;2.37;2.27;;;;;;;-0.79;84.43;100523.16;5074238;28;20635;-76
2021/12/23 04:38:01;;;;;;;4.43;4.03;;;;;;;-0.76;84.49;100522.69;5074457;28;20175;-75
2021/12/23 04:40:30;;;;;;;8.83;4.53;;;;;;;-0.74;84.25;100531.31;5074454;28;20198;-75
2021/12/23 04:42:55;;;;;;;4.83;2.87;;;;;;;-0.74;84.83;100523.28;5074322;28;20196;-76
2021/12/23 04:45:21;;;;;;;9.20;4.10;;;;;;;-0.79;84.13;100517.81;5074585;28;20409;-75
2021/12/23 04:47:46;;;;;;;5.20;4.60;;;;;;;-0.77;84.95;100525.63;5074414;28;20171;-77
2021/12/23 04:50:15;;;;;;;5.30;3.93;;;;;;;-0.76;85.17;100519.19;5074140;28;20261;-78
2021/12/23 04:52:41;;;;;;;5.90;4.43;;;;;;;-0.79;86.00;100517.00;5074319;28;20199;-77
2021/12/23 04:55:07;;;;;;;7.70;6.50;;;;;;;-0.84;85.58;100516.88;5074312;28;20504;-76
2021/12/23 04:57:33;;;;;;;8.77;6.03;;;;;;;-0.91;85.45;100512.44;5073895;28;20439;-76
2021/12/23 04:59:58;;;;;;;6.63;6.03;;;;;;;-0.96;86.78;100516.88;5073857;28;20413;-77
2021/12/23 05:02:24;;;;;;;2.23;2.03;;;;;;;-0.88;87.45;100519.19;5073949;28;20175;-78
2021/12/23 05:04:50;;;;;;;6.33;5.73;;;;;;;-0.69;85.67;100520.72;5073723;28;20171;-76
2021/12/23 05:07:19;;;;;;;5.80;5.07;;;;;;;-0.66;84.91;100512.19;5073901;28;20696;-79
2021/12/23 05:09:45;;;;;;;7.55;6.22;;;;;;;-0.60;85.13;100503.19;5073790;28;20413;-77
2021/12/23 05:12:11;;;;;;;5.00;1.83;;;;;;;-0.62;84.83;100499.13;5073698;28;20210;-76
2021/12/23 05:14:37;;;;;;;6.17;5.57;;;;;;;-0.57;84.70;100493.06;5072327;28;20174;-76
2021/12/23 05:17:02;;;;;;;5.70;5.13;;;;;;;-0.53;84.78;100494.22;5073707;28;20750;-76
2021/12/23 05:19:28;;;;;;;4.80;4.07;;;;;;;-0.51;84.70;100481.38;5073598;28;20270;-76
2021/12/23 05:21:53;;;;;;;6.57;4.70;;;;;;;-0.63;84.36;100471.47;5073447;28;20269;-79
2021/12/23 05:24:19;;;;;;;5.50;4.57;;;;;;;-0.88;86.17;100472.81;5073523;28;20174;-76
2021/12/23 05:26:44;;;;;;;5.93;5.17;;;;;;;-0.92;86.17;100469.78;5073391;28;20515;-76
2021/12/23 05:29:11;;;;;;;9.60;6.53;;;;;;;-0.98;87.36;100457.31;5072272;28;20269;-76
2021/12/23 05:31:38;;;;;;;4.77;4.23;;;;;;;-0.74;87.68;100469.63;5073281;28;20650;-78
2021/12/23 05:34:03;;;;;;;4.97;4.50;;;;;;;-0.66;88.13;100474.63;5071675;28;20814;-75
2021/12/23 05:36:28;;;;;;;8.20;6.63;;;;;;;-0.77;88.43;100459.38;5073391;28;20227;-77
2021/12/23 05:38:54;;;;;;;7.90;5.43;;;;;;;-0.80;88.72;100461.72;5072734;28;20205;-77
2021/12/23 05:41:22;;;;;;;5.43;4.93;;;;;;;-0.69;87.23;100468.94;5072934;28;20258;-77
2021/12/23 05:43:47;;;;;;;6.40;5.63;;;;;;;-0.65;86.93;100460.16;5073110;28;20239;-76
2021/12/23 05:46:13;;;;;;;3.27;2.93;;;;;;;-0.44;86.04;100465.94;5073241;28;20957;-77
2021/12/23 05:48:38;;;;;;;6.90;5.87;;;;;;;-0.49;84.10;100457.78;5073276;28;20174;-78
2021/12/23 05:51:03;;;;;;;8.30;5.30;;;;;;;-0.57;85.85;100444.78;5073073;28;20174;-76
2021/12/23 05:53:29;;;;;;;6.90;6.20;;;;;;;-0.76;86.93;100425.31;5073383;28;20187;-77
2021/12/23 05:55:54;;;;;;;6.47;5.67;;;;;;;-0.78;86.92;100425.56;5072896;28;20183;-76
2021/12/23 05:58:19;;;;;;;7.33;6.33;;;;;;;-0.78;87.61;100435.47;5072914;28;20170;-76
2021/12/23 06:00:45;;;;;;;10.67;6.17;;;;;;;-0.70;87.67;100437.81;5072759;28;20171;-80
2021/12/23 06:03:10;;;;;;;4.10;3.80;;;;;;;-0.50;87.07;100435.50;5072696;28;20650;-76
2021/12/23 06:05:36;;;;;;;6.00;4.70;;;;;;;-0.40;84.50;100429.53;5072647;28;20186;-77
2021/12/23 06:08:01;;;;;;;6.07;5.50;;;;;;;-0.32;83.68;100418.41;5073178;28;20218;-78
2021/12/23 06:10:27;;;;;;;6.30;5.70;;;;;;;-0.35;83.00;100386.69;5072754;28;20604;-75
2021/12/23 06:12:52;;;;;;;6.90;5.83;;;;;;;-0.58;84.93;100373.34;5072922;28;20776;-76
2021/12/23 06:15:18;;;;;;;11.37;7.03;;;;;;;-0.83;87.61;100361.09;5072416;28;20247;-76
2021/12/23 06:17:45;;;;;;;8.57;5.10;;;;;;;-0.82;89.55;100348.50;5072951;28;20213;-76
2021/12/23 06:20:11;;;;;;;7.57;5.50;;;;;;;-0.72;89.99;100333.44;5072583;28;20900;-77
2021/12/23 06:22:37;;;;;;;8.63;7.53;;;;;;;-0.74;90.94;100313.25;5072301;28;20425;-77
2021/12/23 06:25:05;;;;;;;9.73;8.07;;;;;;;-0.98;92.16;100291.09;5072318;28;20435;-77
2021/12/23 06:27:31;;;;;;;8.17;7.37;;;;;;;-0.88;92.43;100285.91;5072322;28;20453;-79
2021/12/23 06:29:56;;;;;;;11.70;6.40;;;;;;;-0.88;92.64;100274.38;5072270;28;20906;-76
2021/12/23 06:32:22;;;;;;;7.63;6.63;;;;;;;-0.88;92.13;100275.19;5072167;28;20547;-76
2021/12/23 06:34:47;;;;;;;9.73;7.47;;;;;;;-0.91;91.91;100262.25;5071944;28;20215;-77
2021/12/23 06:37:13;;;;;;;7.00;6.27;;;;;;;-0.83;91.96;100269.13;5072129;28;20178;-79
2021/12/23 06:39:39;;;;;;;11.57;9.20;;;;;;;-0.78;91.82;100277.25;5072019;28;20178;-77
2021/12/23 06:42:05;;;;;;;7.27;6.60;;;;;;;-0.78;92.11;100304.88;5072136;28;20178;-80
2021/12/23 06:44:31;;;;;;;6.73;5.63;;;;;;;-0.66;91.09;100323.59;5072113;28;20421;-76
2021/12/23 06:46:56;;;;;;;4.87;4.37;;;;;;;-0.60;90.32;100323.44;5071797;28;20425;-78
2021/12/23 06:49:22;;;;;;;2.90;2.67;;;;;;;-0.44;89.10;100334.44;5071986;28;20177;-79
2021/12/23 06:51:47;;;;;;;2.47;1.80;;;;;;;-0.41;88.74;100336.66;5071086;28;20229;-78
2021/12/23 06:54:14;;;;;;;6.27;4.47;;;;;;;-0.42;88.83;100335.03;5072188;28;20262;-76
2021/12/23 06:56:39;;;;;;;7.17;3.70;;;;;;;-0.40;88.83;100325.69;5071817;28;20202;-76
2021/12/23 06:59:05;;;;;;;1.73;1.63;;;;;;;-0.39;89.06;100337.25;5071887;28;20911;-80
2021/12/23 07:01:31;;;;;;;3.07;2.87;;;;;;;-0.31;88.82;100336.81;5071681;28;20174;-78
2021/12/23 07:06:27;;;;;;;1.97;1.87;;;;;;;-0.34;90.11;100323.91;5071491;28;20218;-78
2021/12/23 07:08:54;;;;;;;7.53;3.83;;;;;;;-0.32;90.41;100319.09;5071468;28;20928;-74
2021/12/23 07:11:20;;;;;;;6.53;5.93;;;;;;;-0.40;90.80;100308.78;5071498;28;20181;-74
2021/12/23 07:13:45;;;;;;;7.93;6.53;;;;;;;-0.51;91.30;100283.63;5071421;28;20413;-75
2021/12/23 07:16:12;;;;;;;5.07;4.57;;;;;;;-0.40;91.71;100306.09;5069994;28;20178;-75
2021/12/23 07:18:37;;;;;;;3.63;3.33;;;;;;;-0.27;91.53;100326.44;5071481;28;20706;-74
2021/12/23 07:21:02;;;;;;;4.60;4.10;;;;;;;-0.27;91.33;100307.66;5071170;28;20527;-75
2021/12/23 07:23:28;;;;;;;10.03;7.13;;;;;;;-0.40;91.37;100266.66;5071420;28;20182;-74
2021/12/23 07:25:53;;;;;;;5.03;4.63;;;;;;;-0.39;91.89;100273.63;5071130;28;20175;-74
2021/12/23 07:28:18;;;;;;;5.63;5.13;;;;;;;-0.26;91.72;100301.22;5071115;28;20188;-76
2021/12/23 07:30:44;;;;;;;7.20;5.87;;;;;;;-0.41;91.50;100283.00;5071187;28;20174;-74
2021/12/23 07:33:09;;;;;;;9.27;6.03;;;;;;;-0.38;91.38;100288.69;5070982;28;20666;-75
2021/12/23 07:35:35;;;;;;;8.87;6.10;;;;;;;-0.33;91.11;100287.94;5070654;28;20265;-75
2021/12/23 07:38:02;;;;;;;8.50;6.90;;;;;;;-0.26;91.02;100280.56;5071208;28;20171;-75
2021/12/23 07:40:28;;;;;;;8.70;6.87;;;;;;;-0.27;90.25;100268.19;5071136;28;20175;-75
2021/12/23 07:42:56;;;;;;;14.00;12.60;;;;;;;-0.23;90.40;100250.53;5068977;28;20838;-74
2021/12/23 07:45:24;;;;;;;10.80;9.43;;;;;;;-0.07;89.77;100259.63;5070767;28;20167;-75
2021/12/23 07:47:49;;;;;;;10.00;6.93;;;;;;;-0.11;89.55;100262.00;5070991;28;20503;-75
2021/12/23 07:50:15;;;;;;;5.10;2.90;;;;;;;-0.15;88.82;100260.84;5071130;28;20847;-75
2021/12/23 07:52:40;;;;;;;7.57;6.73;;;;;;;-0.14;88.44;100267.88;5070965;28;20643;-74
2021/12/23 07:55:06;;;;;;;3.43;3.17;;;;;;;-0.16;87.76;100269.16;5071028;28;20179;-74
2021/12/23 07:57:31;;;;;;;7.97;6.07;;;;;;;-0.29;88.38;100264.91;5070699;28;20236;-75
2021/12/23 07:59:58;;;;;;;8.27;7.13;;;;;;;-0.35;88.55;100258.66;5070845;28;20250;-74
2021/12/23 08:02:24;;;;;;;7.57;6.87;;;;;;;-0.32;89.03;100260.03;5070358;28;20197;-74
2021/12/23 08:04:49;;;;;;;6.97;6.07;;;;;;;-0.40;88.90;100239.00;5070564;28;20421;-74
2021/12/23 08:07:15;;;;;;;6.60;5.47;;;;;;;-0.27;88.68;100236.00;5070771;28;20220;-75
2021/12/23 08:09:40;;;;;;;8.63;6.50;;;;;;;-0.29;88.46;100230.03;5070953;28;20175;-73
2021/12/23 08:12:07;;;;;;;7.50;5.17;;;;;;;-0.31;88.76;100219.53;5070673;28;20235;-75
2021/12/23 08:14:32;;;;;;;6.67;6.00;;;;;;;-0.34;88.81;100219.22;5070636;28;20253;-78
2021/12/23 08:16:58;;;;;;;3.50;2.20;;;;;;;-0.23;88.43;100236.31;5070611;28;20512;-76
2021/12/23 08:19:23;;;;;;;3.33;3.10;;;;;;;-0.25;87.82;100233.06;5070412;28;20688;-77
2021/12/23 08:21:49;;;;;;;1.90;1.80;;;;;;;-0.28;87.89;100212.91;5070428;28;20190;-74
2021/12/23 08:24:16;;;;;;;6.30;5.70;;;;;;;-0.33;88.15;100218.16;5089067;28;21743;-77
2021/12/23 08:26:50;;;;;;;1.83;1.70;;;;;;;-0.34;89.00;100209.31;5090551;28;20455;-77
2021/12/23 08:29:18;;;;;;;4.07;3.80;;;;;;;-0.34;88.77;100211.19;5090695;28;20764;-74
2021/12/23 08:31:43;;;;;;;7.40;6.00;;;;;;;-0.39;89.19;100197.69;5090472;28;20538;-74
2021/12/23 08:34:08;;;;;;;8.63;5.53;;;;;;;-0.30;89.60;100210.44;5090525;28;20966;-75
2021/12/23 08:36:34;;;;;;;4.83;3.97;;;;;;;-0.20;88.29;100217.84;5090510;28;20172;-74
2021/12/23 08:39:00;;;;;;;2.53;2.33;;;;;;;-0.18;88.12;100218.41;5090583;28;20174;-74
2021/12/23 08:41:26;;;;;;;3.43;2.17;;;;;;;-0.13;87.87;100217.69;5090454;28;20651;-74
2021/12/23 08:43:51;;;;;;;6.57;3.73;;;;;;;-0.12;87.30;100228.16;5089169;28;20420;-77
2021/12/23 08:46:16;;;;;;;6.33;5.20;;;;;;;-0.11;87.77;100224.41;5090348;28;20537;-74
2021/12/23 08:48:42;;;;;;;3.43;3.17;;;;;;;-0.07;86.66;100235.47;5090562;28;20196;-74
2021/12/23 08:51:07;;;;;;;3.83;3.27;;;;;;;-0.07;87.30;100230.09;5090738;28;20586;-74
2021/12/23 08:53:32;;;;;;;5.23;3.30;;;;;;;-0.06;87.38;100235.22;5090502;28;20205;-74
2021/12/23 08:55:58;;;;;;;0.67;0.67;;;;;;;-0.03;86.98;100237.41;5090227;28;20174;-74
2021/12/23 08:58:23;;;;;;;2.47;2.27;;;;;;;-0.02;86.09;100220.22;5090377;28;20186;-74
2021/12/23 09:00:49;;;;;;;3.53;3.13;;;;;;;0.02;86.81;100233.19;5090340;28;20178;-74
2021/12/23 09:03:14;;;;;;;6.17;5.57;;;;;;;0.03;87.50;100227.56;5090397;28;20678;-74
2021/12/23 09:05:41;;;;;;;1.20;1.17;;;;;;;0.05;86.96;100228.13;5090076;28;20189;-74
2021/12/23 09:08:06;;;;;;;2.53;2.33;;;;;;;0.04;86.25;100231.06;5090490;28;20169;-74
2021/12/23 09:10:33;;;;;;;1.23;1.13;;;;;;;0.03;86.41;100232.13;5090534;28;20468;-74
2021/12/23 09:12:58;;;;;;;2.50;2.40;;;;;;;0.02;86.45;100217.09;5090493;28;20676;-76
2021/12/23 09:15:24;;;;;;;3.07;2.67;;;;;;;0.03;87.04;100207.97;5088145;28;20431;-80
2021/12/23 09:17:49;;;;;;;2.20;2.07;;;;;;;0.01;86.25;100193.97;5093837;28;20170;-79
2021/12/23 09:20:17;;;;;;;2.87;2.60;;;;;;;-0.01;86.62;100176.22;5089713;28;20181;-77
2021/12/23 09:22:42;;;;;;;6.00;4.67;;;;;;;0.02;86.77;100171.44;5091527;28;20650;-81
2021/12/23 09:25:13;;;;;;;7.13;6.43;;;;;;;-0.02;86.83;100153.09;5093787;28;20427;-87
2021/12/23 09:28:02;;;;;;;2.77;2.57;;;;;;;0.03;87.13;100149.69;5093843;28;20181;-80
2021/12/23 09:33:13;;;;;;;1.87;1.57;;;;;;;0.02;87.40;100137.34;5093495;28;20516;-86
2021/12/23 09:35:39;;;;;;;9.43;8.53;;;;;;;-0.04;87.84;100133.75;5093216;28;20408;-80
2021/12/23 09:38:06;;;;;;;3.60;3.27;;;;;;;0.01;87.23;100133.03;5093542;28;20681;-83
2021/12/23 09:40:33;;;;;;;0.83;0.83;;;;;;;-0.03;87.63;100121.94;5093521;28;20166;-78
2021/12/23 09:43:05;;;;;;;3.53;3.23;;;;;;;-0.04;88.32;100120.31;5093685;28;20448;-80
2021/12/23 09:45:33;;;;;;;3.17;2.23;;;;;;;-0.06;87.84;100103.66;5093218;28;20412;-76
2021/12/23 09:48:01;;;;;;;2.10;2.00;;;;;;;-0.09;88.03;100112.22;5093432;28;20423;-76
2021/12/23 09:50:31;;;;;;;3.00;2.90;;;;;;;-0.10;88.05;100126.69;5093392;28;20430;-76
2021/12/23 09:53:00;;;;;;;3.17;2.63;;;;;;;-0.10;87.82;100128.56;5093328;28;20985;-73
2021/12/23 09:55:26;;;;;;;8.60;5.00;;;;;;;-0.09;87.94;100140.94;5093017;28;20887;-75
2021/12/23 09:57:55;;;;;;;5.63;4.43;;;;;;;-0.11;88.27;100129.63;5093019;28;20439;-78
2021/12/23 10:00:25;;;;;;;5.83;2.67;;;;;;;-0.08;88.50;100126.44;5093141;28;20422;-78
2021/12/23 10:02:51;;;;;;;3.73;3.43;;;;;;;-0.07;88.18;100128.88;5093327;28;20416;-76
2021/12/23 10:05:22;;;;;;;2.10;2.00;;;;;;;-0.06;88.20;100127.81;5093039;28;20420;-78
2021/12/23 10:07:49;;;;;;;5.77;4.60;;;;;;;-0.05;87.91;100126.75;5092961;28;20432;-78
2021/12/23 10:10:24;;;;;;;4.60;4.20;;;;;;;-0.04;88.07;100114.97;5092835;28;20416;-75
2021/12/23 10:38:35;;;;;;;2.47;2.27;;;;;;;0.19;86.16;100075.47;5072473;28;20811;-75
2021/12/23 10:41:11;;;;;;;1.00;0.77;;;;;;;0.15;86.96;100082.44;5072082;28;20417;-75
2021/12/23 10:43:51;;;;;;;6.60;4.97;;;;;;;0.15;87.87;100077.06;5072021;28;20417;-75
2021/12/23 10:46:38;;;;;;;5.63;2.83;;;;;;;0.14;87.39;100073.53;5071619;28;20569;-75
2021/12/23 10:49:32;;;;;;;2.97;2.87;;;;;;;0.17;87.41;100072.25;5071957;28;20585;-75
2021/12/23 10:52:24;;;;;;;1.27;1.17;;;;;;;0.20;87.86;100061.81;5071976;28;20610;-75
2021/12/23 11:00:27;;;;;;;4.90;3.80;;;;;;;0.28;86.83;100045.22;5071649;28;20767;-75
2021/12/23 11:03:15;;;;;;;3.40;3.10;;;;;;;0.27;86.39;100034.72;5071470;28;20740;-73
2021/12/23 11:05:52;;;;;;;3.97;3.67;;;;;;;0.31;86.03;100032.38;5071286;28;20763;-74
2021/12/23 11:30:49;;;;;;;2.80;2.60;;;;;;;0.72;81.96;99998.56;5071128;28;20904;-74
2021/12/23 11:41:07;;;;;;;5.73;5.23;;;;;;;0.66;83.73;99957.41;5071043;28;20454;-74
2021/12/23 11:46:15;;;;;;;2.57;2.37;;;;;;;0.68;83.00;99963.34;5070674;28;20767;-74
2021/12/23 11:48:44;;;;;;;8.40;7.57;;;;;;;0.65;83.10;99954.97;5070906;28;20421;-75
2021/12/23 11:51:16;;;;;;;10.77;8.27;;;;;;;0.66;82.76;99957.41;5071113;28;20448;-76
2021/12/23 11:53:47;;;;;;;13.10;8.37;;;;;;;0.69;83.09;99934.56;5070734;28;20799;-75
2021/12/23 11:56:14;;;;;;;10.30;8.67;;;;;;;0.78;82.58;99951.84;5070562;28;20424;-74
2021/12/23 11:58:43;;;;;;;4.40;4.00;;;;;;;0.74;82.67;99932.75;5071100;28;20512;-74
2021/12/23 12:01:14;;;;;;;2.67;2.47;;;;;;;0.76;81.94;99932.47;5070888;28;20409;-74
2021/12/23 12:03:52;;;;;;;1.40;1.30;;;;;;;0.74;82.29;99924.69;5070749;28;20440;-74
2021/12/23 12:06:19;;;;;;;5.57;4.10;;;;;;;0.73;82.18;99923.06;5070444;28;20873;-74
2021/12/23 12:08:45;;;;;;;7.00;2.87;;;;;;;0.72;82.19;99929.47;5070760;28;20424;-74
2021/12/23 12:11:17;;;;;;;4.60;4.20;;;;;;;0.72;82.33;99920.59;5070690;28;20885;-74
2021/12/23 12:13:42;;;;;;;6.43;5.77;;;;;;;0.71;82.89;99902.84;5070637;28;20464;-74
2021/12/23 12:16:28;;;;;;;6.47;4.73;;;;;;;0.72;83.62;99889.16;5070448;28;20915;-74
2021/12/23 12:18:53;;;;;;;3.87;3.07;;;;;;;0.74;82.93;99895.09;5070699;28;20181;-74
2021/12/23 12:21:31;;;;;;;3.83;3.53;;;;;;;0.78;82.75;99881.94;5070026;28;20424;-76
2021/12/23 12:24:18;;;;;;;7.80;7.10;;;;;;;0.78;83.34;99873.88;5070186;28;20193;-73
2021/12/23 12:27:01;;;;;;;11.80;6.83;;;;;;;0.76;83.00;99863.38;5070089;28;20423;-74
2021/12/23 12:29:35;;;;;;;8.70;5.50;;;;;;;0.77;82.93;99850.75;5102780;28;21112;-74
2021/12/23 12:32:01;;;;;;;2.07;1.77;;;;;;;0.74;83.35;99843.22;5076915;28;20456;-74
2021/12/23 12:34:36;;;;;;;5.57;3.80;;;;;;;0.73;83.14;99844.28;5071016;28;20413;-73
2021/12/23 12:37:07;;;;;;;9.60;8.20;;;;;;;0.77;83.98;99840.00;5071398;28;20416;-74
2021/12/23 12:39:36;;;;;;;7.53;6.77;;;;;;;0.77;83.98;99826.56;5070522;28;20413;-74
2021/12/23 12:42:09;;;;;;;8.60;7.57;;;;;;;0.80;83.64;99824.16;5086061;28;20428;-73